Time;durP1;ratioP1;P1;durP2;ratioP2;P2;SDS_P1;SDS_P2;PMS_P1;PMS_P2;Temp;Humidity;BMP_temperature;BMP_pressure;BME280_temperature;BME280_humidity;BME280_pressure;Samples;Min_cycle;Max_cycle;Signal;HPM_P1;HPM_P2
2022/04/23 00:01:42;;;;;;;6.03;4.20;;;13.40;39.50;;;;;;5052410;28;20180;-32
2022/04/23 00:04:10;;;;;;;6.95;4.60;;;13.30;39.60;;;;;;5052536;28;20184;-33
2022/04/23 00:06:36;;;;;;;5.07;4.03;;;13.30;39.60;;;;;;5052510;28;20626;-33
2022/04/23 00:09:02;;;;;;;6.70;3.72;;;13.20;39.60;;;;;;5052192;28;20729;-33
2022/04/23 00:11:28;;;;;;;10.45;4.43;;;13.20;39.60;;;;;;5052192;28;20204;-33
2022/04/23 00:13:55;;;;;;;5.60;4.15;;;13.10;39.70;;;;;;5052488;28;20176;-33
2022/04/23 00:16:22;;;;;;;7.68;3.95;;;13.00;39.60;;;;;;5052665;28;20201;-33
2022/04/23 00:18:48;;;;;;;10.05;4.13;;;12.90;39.70;;;;;;5052274;28;20276;-33
2022/04/23 00:21:14;;;;;;;8.30;5.03;;;12.90;39.80;;;;;;5051852;28;20803;-33
2022/04/23 00:23:40;;;;;;;8.80;5.20;;;12.80;40.00;;;;;;5052333;28;20215;-33
2022/04/23 00:26:06;;;;;;;7.63;4.68;;;12.80;39.90;;;;;;5052471;28;20260;-33
2022/04/23 00:28:32;;;;;;;6.97;3.53;;;12.70;40.10;;;;;;5052203;28;20177;-33
2022/04/23 00:30:58;;;;;;;9.30;5.30;;;12.60;39.90;;;;;;5052125;28;20201;-33
2022/04/23 00:33:24;;;;;;;5.93;3.30;;;12.60;39.90;;;;;;5052199;28;20400;-33
2022/04/23 00:35:50;;;;;;;6.80;3.90;;;12.50;40.10;;;;;;5052322;28;20207;-33
2022/04/23 00:38:16;;;;;;;7.65;3.97;;;12.50;40.20;;;;;;5052081;28;20174;-33
2022/04/23 00:40:43;;;;;;;8.23;4.55;;;12.40;40.00;;;;;;5052067;28;20202;-32
2022/04/23 00:43:25;;;;;;;9.23;3.83;;;12.30;40.20;;;;;;5052029;28;20215;-32
2022/04/23 00:45:50;;;;;;;5.80;4.10;;;12.30;40.20;;;;;;5051618;28;20248;-32
2022/04/23 00:48:16;;;;;;;8.90;4.90;;;12.20;40.30;;;;;;5051750;28;20903;-31
2022/04/23 00:50:42;;;;;;;8.17;4.47;;;13.00;40.60;;;;;;5051811;28;20229;-31
2022/04/23 00:53:09;;;;;;;7.73;4.50;;;12.10;40.30;;;;;;5052030;28;20758;-31
2022/04/23 00:55:36;;;;;;;8.82;5.15;;;12.10;40.40;;;;;;5052032;28;20411;-32
2022/04/23 00:58:02;;;;;;;8.27;5.20;;;12.10;40.40;;;;;;5051743;28;20169;-31
2022/04/23 01:00:28;;;;;;;7.10;5.03;;;12.00;40.40;;;;;;5051492;28;20189;-31
2022/04/23 01:02:55;;;;;;;8.88;5.05;;;12.00;40.40;;;;;;5051578;28;20188;-31
2022/04/23 01:05:26;;;;;;;7.35;4.38;;;11.90;40.40;;;;;;5051728;28;20188;-31
2022/04/23 01:07:53;;;;;;;6.90;4.45;;;11.90;40.40;;;;;;5052003;28;20165;-32
2022/04/23 01:10:19;;;;;;;7.88;6.05;;;11.90;40.40;;;;;;5051268;28;20213;-32
2022/04/23 01:12:46;;;;;;;5.10;4.00;;;11.90;40.50;;;;;;5051549;28;20242;-32
2022/04/23 01:15:13;;;;;;;9.23;5.45;;;11.80;41.20;;;;;;5051619;28;20889;-31
2022/04/23 01:17:40;;;;;;;6.93;4.65;;;11.80;40.60;;;;;;5051634;28;20227;-31
2022/04/23 01:20:14;;;;;;;6.55;4.65;;;11.80;40.80;;;;;;5051582;28;20204;-32
2022/04/23 01:22:42;;;;;;;7.65;4.28;;;11.70;40.80;;;;;;5051372;28;20177;-31
2022/04/23 01:25:12;;;;;;;11.32;5.30;;;11.70;40.80;;;;;;5051772;28;20182;-31
2022/04/23 01:27:40;;;;;;;5.78;3.65;;;11.60;40.80;;;;;;5051406;28;20209;-31
2022/04/23 01:30:08;;;;;;;8.38;4.00;;;11.60;40.70;;;;;;5053762;28;20208;-31
2022/04/23 01:32:34;;;;;;;5.05;4.15;;;11.60;40.80;;;;;;5055162;28;20176;-31
2022/04/23 01:35:00;;;;;;;7.20;5.00;;;11.60;40.80;;;;;;5055421;28;20570;-32
2022/04/23 01:37:25;;;;;;;5.73;4.00;;;11.50;40.90;;;;;;5055366;28;20828;-31
2022/04/23 01:39:51;;;;;;;8.60;4.83;;;11.50;40.80;;;;;;5055429;28;20200;-31
2022/04/23 01:42:18;;;;;;;7.87;4.17;;;11.50;41.00;;;;;;5054960;28;20183;-31
2022/04/23 01:44:45;;;;;;;9.88;6.15;;;11.40;40.90;;;;;;5055088;28;20404;-31
2022/04/23 01:47:11;;;;;;;10.25;5.03;;;11.40;40.80;;;;;;5055227;28;20264;-31
2022/04/23 01:49:37;;;;;;;8.17;4.07;;;11.40;40.90;;;;;;5054935;28;20268;-32
2022/04/23 01:52:03;;;;;;;11.75;5.90;;;11.40;40.90;;;;;;5055023;28;20402;-31
2022/04/23 01:54:29;;;;;;;10.87;5.47;;;11.30;40.90;;;;;;5055153;28;20638;-31
2022/04/23 01:56:58;;;;;;;8.70;4.80;;;11.30;41.00;;;;;;5054947;28;20399;-31
2022/04/23 01:59:24;;;;;;;9.00;5.03;;;11.20;40.90;;;;;;5055048;28;20196;-31
2022/04/23 02:01:50;;;;;;;8.05;4.32;;;11.20;41.10;;;;;;5054687;28;20204;-31
2022/04/23 02:04:16;;;;;;;6.78;4.90;;;11.20;41.00;;;;;;5054837;28;20172;-31
2022/04/23 02:06:42;;;;;;;5.93;4.10;;;11.20;40.90;;;;;;5054499;28;20554;-31
2022/04/23 02:09:08;;;;;;;7.03;3.88;;;11.10;41.00;;;;;;5054457;28;20461;-32
2022/04/23 02:11:34;;;;;;;8.90;4.90;;;11.10;41.00;;;;;;5054319;28;20205;-31
2022/04/23 02:14:02;;;;;;;9.00;4.10;;;11.10;40.90;;;;;;5054635;28;20166;-31
2022/04/23 02:16:32;;;;;;;7.10;4.82;;;11.10;41.00;;;;;;5054700;28;20226;-31
2022/04/23 02:18:58;;;;;;;6.22;4.25;;;11.10;41.00;;;;;;5054428;28;20170;-31
2022/04/23 02:21:27;;;;;;;4.95;3.75;;;11.00;40.90;;;;;;5054275;28;20188;-31
2022/04/23 02:23:54;;;;;;;6.70;3.65;;;11.00;40.90;;;;;;5054371;28;20170;-31
2022/04/23 02:26:22;;;;;;;7.72;4.43;;;10.90;41.10;;;;;;5054416;28;20173;-31
2022/04/23 02:28:52;;;;;;;8.80;3.90;;;10.80;41.00;;;;;;5054384;28;20231;-31
2022/04/23 02:31:18;;;;;;;10.23;5.00;;;10.80;41.00;;;;;;5054088;28;20209;-31
2022/04/23 02:33:46;;;;;;;9.70;4.13;;;10.80;41.20;;;;;;5054048;28;20189;-31
2022/04/23 02:36:15;;;;;;;7.35;4.68;;;10.70;41.20;;;;;;5054108;28;20412;-31
2022/04/23 02:38:41;;;;;;;5.78;4.05;;;10.70;41.20;;;;;;5054042;28;20169;-31
2022/04/23 02:41:08;;;;;;;7.30;3.83;;;10.60;41.00;;;;;;5052514;28;20243;-31
2022/04/23 02:43:43;;;;;;;4.32;2.90;;;10.60;41.20;;;;;;5054115;28;20176;-31
2022/04/23 02:46:09;;;;;;;6.90;3.63;;;10.50;41.70;;;;;;5054089;28;20179;-31
2022/04/23 02:48:38;;;;;;;6.28;4.63;;;10.40;41.60;;;;;;5054038;28;20177;-31
2022/04/23 02:51:03;;;;;;;7.93;3.83;;;10.30;41.70;;;;;;5053513;28;20582;-31
2022/04/23 02:53:29;;;;;;;5.97;3.97;;;10.30;41.70;;;;;;5053902;28;20165;-31
2022/04/23 02:55:56;;;;;;;9.60;4.60;;;10.30;41.80;;;;;;5053934;28;20597;-31
2022/04/23 02:58:27;;;;;;;9.25;3.83;;;10.20;41.60;;;;;;5053841;28;20175;-31
2022/04/23 03:00:53;;;;;;;6.38;3.80;;;10.20;41.70;;;;;;5053528;28;20275;-31
2022/04/23 03:03:20;;;;;;;7.47;4.07;;;10.10;41.70;;;;;;5053700;28;20177;-31
2022/04/23 03:05:46;;;;;;;5.72;4.13;;;10.10;41.90;;;;;;5053670;28;20199;-31
2022/04/23 03:08:12;;;;;;;7.40;3.50;;;10.10;42.10;;;;;;5053871;28;20169;-31
2022/04/23 03:10:41;;;;;;;8.93;3.80;;;10.10;43.00;;;;;;5053218;28;20674;-31
2022/04/23 03:13:10;;;;;;;4.97;3.15;;;10.10;43.00;;;;;;5054119;28;20243;-31
2022/04/23 03:15:36;;;;;;;5.50;2.95;;;10.10;42.60;;;;;;5054108;28;20162;-31
2022/04/23 03:18:04;;;;;;;6.43;4.20;;;10.10;42.60;;;;;;5053903;28;20180;-31
2022/04/23 03:20:29;;;;;;;8.32;4.03;;;10.10;42.40;;;;;;5053700;28;20670;-31
2022/04/23 03:22:55;;;;;;;7.53;4.77;;;10.20;42.20;;;;;;5054066;28;20184;-31
2022/04/23 03:25:21;;;;;;;4.60;3.60;;;10.10;42.30;;;;;;5053874;28;20173;-31
2022/04/23 03:27:48;;;;;;;7.50;4.15;;;10.20;42.10;;;;;;5053648;28;20207;-31
2022/04/23 03:30:13;;;;;;;7.93;4.13;;;10.10;42.10;;;;;;5052970;28;20245;-31
2022/04/23 03:32:39;;;;;;;6.07;3.90;;;10.10;42.20;;;;;;5052872;28;20169;-31
2022/04/23 03:35:05;;;;;;;6.63;4.07;;;10.00;42.20;;;;;;5053236;28;20169;-31
2022/04/23 03:37:31;;;;;;;6.65;4.55;;;10.00;42.10;;;;;;5053307;28;20411;-31
2022/04/23 03:39:57;;;;;;;7.73;3.40;;;9.90;42.30;;;;;;5052918;28;20199;-31
2022/04/23 03:42:23;;;;;;;11.60;4.50;;;9.90;42.70;;;;;;5052713;28;20219;-32
2022/04/23 03:44:49;;;;;;;9.80;4.60;;;9.80;42.70;;;;;;5052959;28;20169;-31
2022/04/23 03:47:15;;;;;;;8.13;4.38;;;9.70;43.40;;;;;;5052809;28;20867;-31
2022/04/23 03:49:41;;;;;;;5.75;3.63;;;9.60;43.10;;;;;;5052694;28;20339;-31
2022/04/23 03:52:10;;;;;;;7.80;4.35;;;9.60;43.20;;;;;;5052105;28;20166;-31
2022/04/23 03:54:36;;;;;;;6.32;3.95;;;9.60;42.80;;;;;;5052840;28;20254;-31
2022/04/23 03:57:01;;;;;;;6.77;3.77;;;9.60;42.80;;;;;;5052347;28;20268;-31
2022/04/23 03:59:30;;;;;;;9.90;5.43;;;9.60;43.20;;;;;;5052422;28;20196;-31
2022/04/23 04:01:56;;;;;;;7.03;4.55;;;9.60;43.60;;;;;;5052555;28;20439;-31
2022/04/23 04:04:22;;;;;;;6.23;4.83;;;9.60;43.00;;;;;;5052539;28;20208;-31
2022/04/23 04:06:48;;;;;;;7.97;5.77;;;9.60;42.80;;;;;;5052697;28;20457;-31
2022/04/23 04:09:14;;;;;;;6.83;4.63;;;9.60;42.80;;;;;;5052267;28;20750;-31
2022/04/23 04:14:24;;;;;;;9.63;4.05;;;9.60;43.10;;;;;;5052439;28;20391;-31
2022/04/23 04:16:50;;;;;;;9.00;4.53;;;9.60;43.20;;;;;;5052387;28;20176;-32
2022/04/23 04:19:16;;;;;;;9.03;5.23;;;9.50;43.10;;;;;;5052235;28;20161;-31
2022/04/23 04:21:43;;;;;;;7.55;4.78;;;9.50;43.30;;;;;;5052099;28;20404;-31
2022/04/23 04:24:12;;;;;;;7.85;5.07;;;9.50;43.60;;;;;;5052852;28;20699;-32
2022/04/23 04:26:44;;;;;;;7.53;4.93;;;9.60;43.30;;;;;;5052218;28;20176;-32
2022/04/23 04:29:11;;;;;;;11.07;5.43;;;9.60;43.20;;;;;;5052342;28;20508;-32
2022/04/23 04:31:49;;;;;;;7.40;4.47;;;9.60;43.20;;;;;;5051801;28;20284;-32
2022/04/23 04:34:21;;;;;;;8.20;5.30;;;9.70;43.20;;;;;;5052373;28;20173;-32
2022/04/23 04:36:48;;;;;;;6.68;4.00;;;9.70;43.20;;;;;;5051973;28;20566;-31
2022/04/23 04:39:15;;;;;;;8.75;4.82;;;9.70;43.30;;;;;;5051945;28;20209;-32
2022/04/23 04:41:41;;;;;;;9.90;6.15;;;9.70;43.50;;;;;;5051687;28;20169;-32
2022/04/23 04:44:07;;;;;;;6.65;5.13;;;9.80;43.20;;;;;;5051919;28;20267;-32
2022/04/23 04:46:34;;;;;;;9.18;5.40;;;9.80;43.30;;;;;;5052014;28;20639;-32
2022/04/23 04:49:02;;;;;;;7.32;4.03;;;9.80;43.20;;;;;;5051895;28;20275;-32
2022/04/23 04:51:28;;;;;;;6.40;4.72;;;9.90;43.90;;;;;;5051565;28;20291;-32
2022/04/23 04:53:54;;;;;;;6.68;4.13;;;10.00;43.40;;;;;;5051546;28;20184;-32
2022/04/23 04:56:20;;;;;;;8.00;6.10;;;10.10;43.40;;;;;;5051652;28;20323;-32
2022/04/23 04:58:47;;;;;;;15.73;6.53;;;10.20;43.40;;;;;;5052084;28;20446;-31
2022/04/23 05:01:13;;;;;;;9.63;6.00;;;10.30;43.20;;;;;;5051495;28;20200;-32
2022/04/23 05:03:40;;;;;;;9.75;5.03;;;10.40;43.00;;;;;;5051767;28;20169;-32
2022/04/23 05:06:11;;;;;;;7.80;5.38;;;10.40;43.00;;;;;;5055958;28;20216;-32
2022/04/23 05:08:37;;;;;;;7.75;5.78;;;10.50;42.90;;;;;;5056118;28;20157;-31
2022/04/23 05:11:04;;;;;;;8.07;5.32;;;10.60;42.80;;;;;;5055378;28;20296;-32
2022/04/23 05:13:30;;;;;;;11.63;6.05;;;10.70;42.80;;;;;;5055906;28;20172;-32
2022/04/23 05:15:56;;;;;;;7.55;5.40;;;10.80;42.50;;;;;;5055695;28;20221;-32
2022/04/23 05:18:22;;;;;;;9.15;6.05;;;10.90;42.40;;;;;;5055720;28;20168;-32
2022/04/23 05:20:48;;;;;;;11.00;6.80;;;11.00;42.20;;;;;;5055440;28;20745;-32
2022/04/23 05:23:14;;;;;;;7.80;5.65;;;11.10;42.20;;;;;;5055498;28;20751;-32
2022/04/23 05:25:39;;;;;;;9.03;5.77;;;11.20;42.10;;;;;;5055592;28;20177;-32
2022/04/23 05:28:05;;;;;;;6.77;5.70;;;11.20;41.90;;;;;;5055493;28;20173;-32
2022/04/23 05:30:31;;;;;;;8.88;5.10;;;11.30;41.90;;;;;;5037321;28;20338;-32
2022/04/23 05:32:57;;;;;;;9.90;5.80;;;11.40;42.00;;;;;;5055524;28;20173;-32
2022/04/23 05:35:22;;;;;;;11.77;6.40;;;11.50;41.90;;;;;;5055331;28;20631;-32
2022/04/23 05:37:48;;;;;;;13.07;7.10;;;11.60;41.70;;;;;;5055499;28;20173;-32
2022/04/23 05:40:14;;;;;;;9.30;5.97;;;11.80;41.40;;;;;;5055194;28;20208;-32
2022/04/23 05:42:40;;;;;;;10.87;5.40;;;11.90;41.60;;;;;;5055076;28;20227;-32
2022/04/23 05:45:06;;;;;;;11.87;5.63;;;12.00;41.00;;;;;;5055475;28;20465;-32
2022/04/23 05:47:31;;;;;;;8.67;5.90;;;12.10;41.30;;;;;;5055184;28;20534;-32
2022/04/23 05:49:57;;;;;;;8.80;4.70;;;12.30;41.00;;;;;;5054927;28;20447;-32
2022/04/23 05:52:23;;;;;;;7.27;5.20;;;12.40;40.70;;;;;;5054844;28;20161;-32
2022/04/23 05:54:48;;;;;;;11.93;6.57;;;12.50;40.50;;;;;;5054999;28;20169;-32
2022/04/23 05:57:15;;;;;;;10.83;6.50;;;12.60;39.60;;;;;;5054935;28;20192;-32
2022/04/23 05:59:41;;;;;;;11.43;6.82;;;12.60;38.60;;;;;;5054425;28;20193;-32
2022/04/23 06:02:08;;;;;;;8.40;5.33;;;12.50;39.20;;;;;;5054697;28;20547;-32
2022/04/23 06:04:33;;;;;;;9.60;5.28;;;12.70;39.20;;;;;;5054767;28;20418;-32
2022/04/23 06:06:59;;;;;;;12.77;6.07;;;12.70;39.30;;;;;;5055039;28;20177;-32
2022/04/23 06:09:25;;;;;;;8.50;5.90;;;12.80;38.90;;;;;;5054437;28;20697;-32
2022/04/23 06:11:50;;;;;;;8.67;4.70;;;12.90;38.60;;;;;;5053263;28;20199;-32
2022/04/23 06:14:16;;;;;;;11.57;6.10;;;13.00;38.20;;;;;;5053735;28;20407;-32
2022/04/23 06:16:42;;;;;;;9.90;5.60;;;13.00;38.00;;;;;;5053126;28;20223;-32
2022/04/23 06:19:08;;;;;;;5.77;4.40;;;13.10;38.10;;;;;;5053391;28;20177;-32
2022/04/23 06:21:33;;;;;;;6.50;4.17;;;13.20;38.10;;;;;;5053101;28;20481;-32
2022/04/23 06:23:59;;;;;;;9.90;5.30;;;13.30;38.40;;;;;;5053567;28;20197;-32
2022/04/23 06:26:25;;;;;;;8.70;4.73;;;13.50;38.50;;;;;;5053433;28;20173;-32
2022/04/23 06:28:51;;;;;;;7.97;5.55;;;13.60;38.10;;;;;;5035617;28;20189;-32
2022/04/23 06:31:17;;;;;;;6.67;3.90;;;13.80;38.00;;;;;;5053065;28;20205;-32
2022/04/23 06:33:43;;;;;;;8.88;4.78;;;13.90;36.80;;;;;;5053198;28;20173;-32
2022/04/23 06:36:13;;;;;;;8.30;5.60;;;14.10;37.00;;;;;;5053063;28;20302;-32
2022/04/23 06:38:38;;;;;;;7.35;4.60;;;14.20;36.50;;;;;;5053514;28;20153;-32
2022/04/23 06:41:04;;;;;;;8.63;5.27;;;14.30;36.90;;;;;;5053010;28;20189;-32
2022/04/23 06:43:30;;;;;;;7.00;4.87;;;14.40;34.80;;;;;;5052968;28;20169;-32
2022/04/23 06:45:55;;;;;;;7.20;5.33;;;14.50;36.10;;;;;;5053172;28;20200;-32
2022/04/23 06:48:21;;;;;;;7.77;4.67;;;14.60;36.80;;;;;;5053011;28;20166;-32
2022/04/23 06:50:47;;;;;;;5.37;3.80;;;14.80;36.10;;;;;;5052446;28;20467;-32
2022/04/23 06:53:12;;;;;;;5.60;3.97;;;14.90;34.30;;;;;;5053115;28;20169;-32
2022/04/23 06:55:38;;;;;;;7.20;4.90;;;15.00;35.20;;;;;;5052855;28;20577;-32
2022/04/23 06:58:04;;;;;;;6.20;4.30;;;15.10;34.70;;;;;;5052731;28;20165;-32
2022/04/23 07:00:30;;;;;;;7.10;4.70;;;15.30;35.20;;;;;;5052437;28;20465;-32
2022/04/23 07:02:56;;;;;;;7.97;4.57;;;15.40;35.40;;;;;;5052695;28;20169;-32
2022/04/23 07:05:22;;;;;;;4.60;3.87;;;15.60;35.20;;;;;;5052629;28;20170;-32
2022/04/23 07:07:58;;;;;;;5.65;3.60;;;15.80;35.10;;;;;;5052659;28;20173;-32
2022/04/23 07:10:26;;;;;;;6.28;3.35;;;15.90;32.30;;;;;;5035332;28;134086;-32
2022/04/23 07:12:53;;;;;;;3.85;2.70;;;15.90;31.00;;;;;;5048790;28;20180;-32
2022/04/23 07:15:28;;;;;;;3.30;2.50;;;15.90;29.90;;;;;;5053524;28;20267;-33
2022/04/23 07:17:54;;;;;;;3.53;2.70;;;16.00;30.60;;;;;;5053821;28;20191;-32
2022/04/23 07:20:20;;;;;;;2.90;2.13;;;16.10;28.90;;;;;;5053225;28;20193;-32
2022/04/23 07:25:40;;;;;;;2.67;1.65;;;16.30;29.30;;;;;;5053607;28;20234;-32
2022/04/23 07:28:07;;;;;;;2.88;2.42;;;16.40;27.70;;;;;;5052771;28;20500;-32
2022/04/23 07:30:34;;;;;;;3.17;1.83;;;16.40;28.50;;;;;;5052860;28;20208;-32
2022/04/23 07:33:00;;;;;;;4.15;1.92;;;16.60;28.10;;;;;;5053158;28;20169;-32
2022/04/23 07:38:14;;;;;;;3.00;1.75;;;16.80;26.50;;;;;;5053353;28;20403;-32
2022/04/23 07:40:40;;;;;;;4.60;1.90;;;16.90;26.30;;;;;;5052603;28;20292;-32
2022/04/23 07:43:10;;;;;;;2.13;1.45;;;17.00;26.00;;;;;;5053202;28;20182;-32
2022/04/23 07:45:39;;;;;;;3.63;2.08;;;17.00;25.30;;;;;;5052916;28;20173;-32
2022/04/23 07:48:06;;;;;;;2.88;1.23;;;17.00;25.60;;;;;;5052856;28;20635;-32
2022/04/23 07:50:32;;;;;;;3.15;2.35;;;17.20;26.60;;;;;;5052502;28;20212;-32
2022/04/23 07:52:58;;;;;;;3.42;1.77;;;17.40;26.30;;;;;;5052831;28;20219;-32
2022/04/23 07:55:24;;;;;;;2.20;1.77;;;17.50;24.10;;;;;;5052696;28;20165;-32
2022/04/23 07:57:49;;;;;;;3.47;2.00;;;17.40;23.40;;;;;;5052229;28;20650;-32
2022/04/23 08:00:15;;;;;;;2.83;2.00;;;17.40;25.10;;;;;;5052446;28;20197;-32
2022/04/23 08:02:41;;;;;;;2.53;1.52;;;17.50;22.80;;;;;;5052768;28;20263;-33
2022/04/23 08:05:09;;;;;;;2.60;1.07;;;17.40;22.70;;;;;;5052472;28;20284;-32
2022/04/23 08:07:35;;;;;;;3.97;1.85;;;17.50;24.10;;;;;;5052563;28;20607;-32
2022/04/23 08:10:02;;;;;;;3.10;2.00;;;17.50;24.00;;;;;;5052132;28;20685;-32
2022/04/23 08:12:28;;;;;;;2.20;1.70;;;17.70;25.10;;;;;;5050887;28;20873;-32
2022/04/23 08:14:54;;;;;;;2.70;2.07;;;17.90;26.00;;;;;;5052232;28;20197;-32
2022/04/23 08:17:19;;;;;;;4.53;3.07;;;18.20;25.40;;;;;;5052339;28;20400;-32
2022/04/23 08:19:45;;;;;;;2.67;2.13;;;18.40;26.70;;;;;;5052461;28;20185;-32
2022/04/23 08:22:11;;;;;;;4.50;2.30;;;18.70;27.30;;;;;;5052125;28;20530;-32
2022/04/23 08:24:37;;;;;;;9.75;2.40;;;18.90;26.60;;;;;;5052393;28;20219;-32
2022/04/23 08:27:03;;;;;;;3.05;2.10;;;19.10;25.80;;;;;;5052407;28;20181;-32
2022/04/23 08:32:13;;;;;;;3.08;2.08;;;19.40;25.30;;;;;;5052110;28;20429;-32
2022/04/23 08:34:39;;;;;;;2.63;1.80;;;19.50;23.00;;;;;;5051808;28;20165;-33
2022/04/23 08:37:05;;;;;;;4.17;2.00;;;19.50;24.10;;;;;;5051999;28;20180;-32
2022/04/23 08:39:30;;;;;;;2.60;2.00;;;19.60;23.20;;;;;;5052144;28;20197;-32
2022/04/23 08:41:56;;;;;;;2.40;1.83;;;19.60;22.50;;;;;;5051821;28;20539;-32
2022/04/23 08:44:22;;;;;;;2.15;1.55;;;19.70;24.30;;;;;;5052039;28;20201;-33
2022/04/23 08:46:50;;;;;;;2.83;2.10;;;19.80;21.60;;;;;;5051888;28;20235;-32
2022/04/23 08:49:17;;;;;;;3.60;2.50;;;19.90;24.50;;;;;;5051918;28;20498;-32
2022/04/23 08:51:54;;;;;;;3.00;2.00;;;20.00;22.80;;;;;;5051397;28;20205;-32
2022/04/23 08:54:23;;;;;;;3.58;3.10;;;20.00;22.30;;;;;;5051518;28;20236;-33
2022/04/23 08:56:49;;;;;;;5.93;2.40;;;20.10;22.50;;;;;;5051779;28;20249;-32
2022/04/23 08:59:16;;;;;;;5.20;3.10;;;20.00;22.40;;;;;;5051691;28;20640;-32
2022/04/23 09:01:44;;;;;;;2.90;2.17;;;20.00;22.30;;;;;;5051538;28;20200;-32
2022/04/23 09:04:11;;;;;;;3.20;1.70;;;20.10;22.70;;;;;;5051778;28;20187;-32
2022/04/23 09:06:42;;;;;;;3.67;2.00;;;20.00;20.30;;;;;;5051720;28;20173;-32
2022/04/23 09:09:20;;;;;;;2.28;1.50;;;20.10;22.50;;;;;;5051492;28;20170;-32
2022/04/23 09:11:53;;;;;;;3.20;2.00;;;20.10;21.50;;;;;;5051394;28;20666;-33
2022/04/23 09:14:27;;;;;;;2.70;2.00;;;20.00;20.80;;;;;;5051787;28;20169;-32
2022/04/23 09:25:40;;;;;;;3.55;2.10;;;20.00;21.50;;;;;;5031979;28;20235;-32
2022/04/23 09:28:29;;;;;;;2.63;1.70;;;20.10;20.90;;;;;;5031584;28;20694;-33
2022/04/23 09:30:56;;;;;;;3.42;2.58;;;20.10;20.00;;;;;;5031544;28;20235;-32
2022/04/23 09:33:29;;;;;;;4.03;3.63;;;20.10;20.60;;;;;;5031547;28;20189;-32
2022/04/23 09:36:02;;;;;;;5.15;2.53;;;20.10;23.00;;;;;;5031891;28;20154;-32
2022/04/23 09:38:29;;;;;;;2.53;1.48;;;20.40;21.00;;;;;;5031753;28;20173;-32
2022/04/23 09:40:57;;;;;;;4.07;2.30;;;20.60;22.70;;;;;;5031415;28;20212;-32
2022/04/23 09:43:25;;;;;;;4.05;2.60;;;20.90;21.00;;;;;;5031415;28;20227;-32
2022/04/23 09:46:06;;;;;;;3.10;2.30;;;20.90;20.60;;;;;;5031707;28;20188;-32
2022/04/23 09:48:32;;;;;;;2.85;2.17;;;21.00;22.20;;;;;;5031725;28;20217;-32
2022/04/23 09:50:59;;;;;;;4.03;2.55;;;21.20;21.90;;;;;;5033045;28;20206;-32
2022/04/23 09:53:27;;;;;;;3.45;2.60;;;21.30;21.20;;;;;;5035183;28;20170;-32
2022/04/23 09:55:59;;;;;;;2.58;1.80;;;21.40;20.10;;;;;;5035101;28;20166;-33
2022/04/23 09:58:27;;;;;;;4.30;2.58;;;21.40;22.00;;;;;;5040038;28;20189;-33
2022/04/23 10:00:53;;;;;;;2.80;2.30;;;21.50;20.00;;;;;;5054435;28;20238;-33
2022/04/23 10:03:25;;;;;;;4.28;2.17;;;21.70;19.60;;;;;;5054908;28;20182;-33
2022/04/23 10:05:51;;;;;;;2.88;2.05;;;21.60;19.50;;;;;;5054948;28;20181;-32
2022/04/23 10:08:22;;;;;;;3.10;1.67;;;21.70;19.20;;;;;;5054824;28;20165;-32
2022/04/23 10:11:00;;;;;;;3.28;2.30;;;21.60;19.10;;;;;;5054357;28;20274;-33
2022/04/23 10:13:29;;;;;;;2.73;2.03;;;21.60;19.80;;;;;;5054566;28;20177;-33
2022/04/23 10:15:57;;;;;;;3.95;1.90;;;21.70;19.80;;;;;;5054591;28;20487;-33
2022/04/23 10:18:23;;;;;;;2.70;2.20;;;21.70;19.50;;;;;;5054650;28;20181;-33
2022/04/23 10:21:00;;;;;;;3.05;2.53;;;21.80;19.30;;;;;;5054214;28;20189;-33
2022/04/23 10:23:58;;;;;;;3.40;2.10;;;21.80;18.60;;;;;;5054502;28;20217;-33
2022/04/23 10:26:43;;;;;;;3.20;2.37;;;21.70;19.40;;;;;;4966415;28;20833;-33
2022/04/23 10:29:11;;;;;;;9.30;1.97;;;21.80;21.50;;;;;;5054488;28;20411;-33
2022/04/23 10:31:37;;;;;;;9.20;2.77;;;22.00;20.20;;;;;;5053898;28;20798;-32
2022/04/23 10:34:04;;;;;;;3.07;2.40;;;22.10;19.50;;;;;;5054478;28;20404;-33
2022/04/23 10:36:29;;;;;;;3.60;2.30;;;22.00;18.80;;;;;;5054313;28;20400;-32
2022/04/23 10:39:19;;;;;;;3.20;1.67;;;22.00;19.00;;;;;;5054295;28;20410;-33
2022/04/23 10:41:44;;;;;;;2.60;1.67;;;22.00;19.60;;;;;;5039197;28;20185;-33
2022/04/23 10:44:10;;;;;;;2.37;2.17;;;22.00;19.10;;;;;;5054303;28;20407;-33
2022/04/23 10:46:45;;;;;;;3.20;1.77;;;22.00;19.10;;;;;;5054111;28;20181;-33
2022/04/23 10:49:22;;;;;;;3.97;1.70;;;22.20;19.10;;;;;;5054168;28;20489;-33
2022/04/23 10:51:48;;;;;;;1.90;1.47;;;22.30;18.30;;;;;;5053621;28;20538;-33
2022/04/23 10:54:16;;;;;;;3.17;2.40;;;22.40;20.50;;;;;;5054161;28;20491;-33
2022/04/23 10:56:43;;;;;;;2.30;1.40;;;22.60;20.70;;;;;;5054283;28;20462;-33
2022/04/23 10:59:40;;;;;;;3.57;2.33;;;22.80;18.90;;;;;;5053889;28;20537;-33
2022/04/23 11:02:29;;;;;;;3.27;1.87;;;22.90;18.80;;;;;;5052631;28;20478;-33
2022/04/23 11:13:30;;;;;;;3.57;2.20;;;23.60;22.30;;;;;;5053813;28;20381;-34
2022/04/23 11:16:13;;;;;;;4.07;2.27;;;23.90;22.00;;;;;;5053370;28;20399;-34
2022/04/23 11:18:41;;;;;;;4.57;3.00;;;24.20;21.10;;;;;;5053403;28;20396;-35
2022/04/23 11:21:17;;;;;;;5.47;3.10;;;24.20;19.80;;;;;;5053442;28;20435;-35
2022/04/23 11:23:47;;;;;;;4.33;2.83;;;24.20;20.60;;;;;;5052150;28;20434;-34
2022/04/23 11:26:15;;;;;;;2.90;2.03;;;24.20;20.00;;;;;;5053331;28;20474;-34
2022/04/23 11:28:41;;;;;;;3.23;2.40;;;24.30;21.00;;;;;;5053335;28;20426;-34
2022/04/23 11:31:11;;;;;;;3.73;2.53;;;24.20;19.80;;;;;;5052763;28;20813;-34
2022/04/23 11:33:48;;;;;;;3.70;3.23;;;24.30;21.40;;;;;;5053272;28;20491;-34
2022/04/23 11:36:13;;;;;;;2.90;2.00;;;24.40;21.00;;;;;;5053307;28;20442;-34
2022/04/23 11:38:42;;;;;;;3.80;2.30;;;24.60;19.80;;;;;;5053010;28;20408;-34
2022/04/23 11:41:08;;;;;;;3.13;1.97;;;24.50;19.30;;;;;;5052816;28;20189;-35
2022/04/23 11:43:37;;;;;;;4.83;2.47;;;24.50;19.70;;;;;;5053060;28;20453;-34
2022/04/23 11:46:06;;;;;;;4.43;2.70;;;24.20;19.30;;;;;;5052986;28;20408;-34
2022/04/23 11:49:01;;;;;;;3.03;2.30;;;24.10;21.00;;;;;;5053180;28;20534;-34
2022/04/23 11:51:26;;;;;;;3.83;1.70;;;24.20;20.00;;;;;;5031673;28;20529;-34
2022/04/23 11:54:00;;;;;;;3.93;2.47;;;24.30;21.40;;;;;;5052946;28;20404;-34
2022/04/23 11:56:29;;;;;;;3.47;2.57;;;24.60;21.40;;;;;;5052917;28;20515;-34
2022/04/23 11:58:57;;;;;;;4.67;2.20;;;24.60;18.10;;;;;;5052739;28;20404;-34
2022/04/23 12:01:24;;;;;;;3.10;2.50;;;24.40;19.30;;;;;;5052438;28;20553;-34
2022/04/23 12:03:53;;;;;;;2.30;2.00;;;24.40;20.70;;;;;;5052560;28;20404;-34
2022/04/23 12:06:20;;;;;;;4.10;2.50;;;24.60;20.90;;;;;;5052646;28;20567;-34
2022/04/23 12:08:46;;;;;;;4.63;2.20;;;24.80;21.60;;;;;;5051223;28;20427;-34
2022/04/23 12:11:28;;;;;;;3.40;2.60;;;25.10;20.70;;;;;;5051865;28;20476;-34
2022/04/23 12:13:54;;;;;;;3.10;2.40;;;25.40;19.20;;;;;;5052282;28;20432;-34
2022/04/23 12:16:32;;;;;;;3.10;2.37;;;25.30;18.10;;;;;;5052461;28;20529;-34
2022/04/23 12:19:17;;;;;;;3.60;2.70;;;25.20;20.50;;;;;;5052350;28;20418;-34
2022/04/23 12:21:57;;;;;;;2.10;1.90;;;25.30;19.90;;;;;;5051768;28;20411;-34
2022/04/23 12:24:33;;;;;;;3.40;2.70;;;25.20;18.70;;;;;;5052203;28;20415;-34
2022/04/23 12:27:04;;;;;;;3.33;2.70;;;25.10;20.30;;;;;;5052071;28;20958;-34
2022/04/23 12:40:58;;;;;;;2.73;2.40;;;25.30;20.50;;;;;;5052035;28;20489;-34
2022/04/23 12:43:31;;;;;;;3.90;2.90;;;25.60;20.90;;;;;;5052055;28;20879;-34
2022/04/23 12:46:08;;;;;;;3.53;2.37;;;25.70;20.50;;;;;;5052059;28;20471;-34
2022/04/23 12:48:53;;;;;;;3.37;1.87;;;25.90;20.10;;;;;;5052194;28;20383;-34
2022/04/23 12:51:18;;;;;;;3.50;2.47;;;25.80;20.00;;;;;;5051592;28;20612;-34
2022/04/23 12:53:44;;;;;;;2.70;2.10;;;25.60;18.40;;;;;;5051920;28;20973;-34
2022/04/23 12:56:09;;;;;;;2.77;2.37;;;25.40;18.80;;;;;;5051774;28;20169;-34
2022/04/23 12:58:35;;;;;;;4.20;2.53;;;25.30;20.20;;;;;;5051835;28;20293;-34
2022/04/23 13:01:01;;;;;;;3.43;2.53;;;25.30;21.00;;;;;;5051555;28;20185;-34
2022/04/23 13:03:37;;;;;;;3.30;2.67;;;25.40;20.90;;;;;;5051887;28;20530;-34
2022/04/23 13:08:54;;;;;;;2.80;2.47;;;25.60;19.70;;;;;;5051816;28;20169;-34
2022/04/23 13:08:55;;;;;;;5.10;3.80;;;25.50;18.80;;;;;;5051567;28;20408;-34
2022/04/23 13:11:25;;;;;;;2.73;2.30;;;25.20;18.30;;;;;;5051232;28;21003;-34
2022/04/23 13:13:54;;;;;;;3.37;2.67;;;25.10;20.20;;;;;;5052017;28;20808;-34
2022/04/23 13:16:32;;;;;;;3.23;2.80;;;25.30;21.00;;;;;;5051717;28;20435;-34
2022/04/23 13:19:00;;;;;;;4.50;2.70;;;25.60;20.10;;;;;;5051867;28;20441;-34
2022/04/23 13:21:31;;;;;;;3.70;2.47;;;25.70;19.80;;;;;;5051426;28;20494;-34
2022/04/23 13:23:57;;;;;;;3.40;2.50;;;25.60;20.20;;;;;;5051670;28;20413;-34
2022/04/23 13:26:25;;;;;;;4.40;2.67;;;25.50;20.20;;;;;;5054289;28;20878;-34
2022/04/23 13:28:51;;;;;;;2.50;1.80;;;25.50;19.90;;;;;;5055696;28;20399;-34
2022/04/23 13:31:17;;;;;;;3.43;2.73;;;25.60;20.00;;;;;;5054438;28;20463;-34
2022/04/23 13:33:43;;;;;;;5.27;2.90;;;25.80;19.30;;;;;;5054757;28;20696;-34